»·PEaware :: USC243 KPSP-KFLG

USC243 :: KPSP-KFLG

FLIGHT INFORMATION

Flight Status: Arrived
Operator: Unknown
More flights by this operator :: More flights under this callsign
Pilot: Andy P. (22680)
Aircraft: GATES LEARJET LEARJET 35/36
(LJ35)
More flights by this aircraft type
Origin: KPSP Palm Springs Intl
United States
Destination: KFLG Flagstaff Pulliam
United States
More flights between these airports :: More routes between these airports
Route: +CATH1 PSP TRM PKE DRK
File this flight plan on PilotEdge
Remarks:
Altitude:
(Current/Filed)
35,000ft
Speed:
(Current/Filed)
465kts
Departed: 17-Mar-19 01:59 PM
Arrived: 17-Mar-19 02:43 PM
Distance/Time
Traveled:
251nm/0:44
Distance/Time
To Go:
Arrived

Flight Plot

Page will automatically refresh every two minutes.

Flight plan parsing failed; only flown route is shown


Map Options




Map Legend


Flown Route
Filed Route
Departure Airport
Arrival Airport
Navaid (VOR, NDB)
Fix

Horizontal Profiles

Position Reports

Time Latitude Longitude Heading Altitude Ground
Speed
17-Mar-19 13:25 33.825793 -116.507933 270 479ft 0kts
17-Mar-19 13:26 33.825793 -116.507933 270 479ft 0kts
17-Mar-19 13:27 33.825793 -116.507933 270 479ft 0kts
17-Mar-19 13:28 33.825793 -116.507933 270 479ft 0kts
17-Mar-19 13:29 33.825793 -116.507933 270 479ft 0kts
17-Mar-19 13:30 30.499342 -86.511286 192 92ft 0kts
17-Mar-19 13:35 33.825793 -116.507935 270 479ft 0kts
17-Mar-19 13:36 33.825793 -116.507936 270 479ft 0kts
17-Mar-19 13:37 33.825793 -116.507937 270 479ft 0kts
17-Mar-19 13:38 33.825793 -116.507938 270 479ft 0kts
17-Mar-19 13:39 33.825793 -116.507939 270 479ft 0kts
17-Mar-19 13:40 33.825793 -116.507940 270 479ft 0kts
17-Mar-19 13:41 33.825793 -116.507942 270 479ft 0kts
17-Mar-19 13:42 33.825793 -116.507943 270 479ft 0kts
17-Mar-19 13:43 33.825793 -116.507944 270 479ft 0kts
17-Mar-19 13:44 33.825793 -116.507945 270 479ft 0kts
17-Mar-19 13:45 33.825793 -116.507946 270 479ft 0kts
17-Mar-19 13:46 33.825793 -116.507947 270 479ft 0kts
17-Mar-19 13:47 33.825793 -116.507948 270 479ft 0kts
17-Mar-19 13:48 33.825793 -116.507949 270 479ft 0kts
17-Mar-19 13:49 33.825793 -116.507950 270 479ft 0kts
17-Mar-19 13:50 33.825793 -116.507951 270 479ft 0kts
17-Mar-19 13:51 33.825793 -116.507952 270 479ft 0kts
17-Mar-19 13:52 33.825793 -116.507954 270 479ft 0kts
17-Mar-19 13:53 33.825333 -116.506871 88 479ft 15kts
17-Mar-19 13:54 33.821878 -116.502778 142 479ft 17kts
17-Mar-19 13:55 33.818550 -116.499605 94 479ft 10kts
17-Mar-19 13:56 33.818542 -116.499006 92 479ft 0kts
17-Mar-19 13:57 33.818542 -116.498987 92 479ft 2kts
17-Mar-19 13:58 33.828677 -116.506776 323 484ft 160kts
17-Mar-19 13:59 33.875067 -116.545169 323 4537ft 229kts
17-Mar-19 14:00 33.934157 -116.554682 53 7001ft 281kts
17-Mar-19 14:01 33.905426 -116.473727 142 11440ft 296kts
17-Mar-19 14:02 33.852674 -116.401347 121 12983ft 304kts
17-Mar-19 14:03 33.785731 -116.331677 139 13021ft 339kts
17-Mar-19 14:04 33.715013 -116.250190 140 13047ft 360kts
17-Mar-19 14:05 33.656720 -116.157587 92 17492ft 366kts
17-Mar-19 14:06 33.665785 -116.035605 66 21292ft 376kts
17-Mar-19 14:07 33.706047 -115.919839 73 25057ft 378kts
17-Mar-19 14:08 33.743716 -115.797953 64 27226ft 409kts
17-Mar-19 14:09 33.787764 -115.669244 67 29475ft 421kts
17-Mar-19 14:10 33.829925 -115.538983 67 31900ft 417kts
17-Mar-19 14:11 33.871730 -115.408897 66 33906ft 417kts
17-Mar-19 14:12 33.913859 -115.277232 66 35055ft 433kts
17-Mar-19 14:13 33.958821 -115.136040 66 35089ft 466kts
17-Mar-19 14:14 34.005551 -114.988473 67 35073ft 470kts
17-Mar-19 14:15 34.050649 -114.845391 67 35066ft 449kts
17-Mar-19 14:16 34.094882 -114.704449 68 35064ft 448kts
17-Mar-19 14:17 34.136490 -114.561408 70 35067ft 455kts
17-Mar-19 14:18 34.177185 -114.415785 70 35069ft 461kts
17-Mar-19 14:19 34.218370 -114.268654 70 35070ft 462kts
17-Mar-19 14:20 34.259440 -114.121343 70 35070ft 463kts
17-Mar-19 14:21 34.300376 -113.973774 70 35070ft 463kts
17-Mar-19 14:22 34.341297 -113.825474 70 35071ft 463kts
17-Mar-19 14:23 34.381860 -113.677685 70 35080ft 462kts
17-Mar-19 14:24 34.421927 -113.530922 71 33844ft 447kts
17-Mar-19 14:25 34.460338 -113.389498 71 31713ft 448kts
17-Mar-19 14:26 34.500030 -113.242551 71 29664ft 463kts
17-Mar-19 14:27 34.539470 -113.095754 72 27715ft 452kts
17-Mar-19 14:28 34.578105 -112.951175 72 25743ft 453kts
17-Mar-19 14:29 34.617117 -112.804382 72 23768ft 461kts
17-Mar-19 14:30 34.655966 -112.657417 72 21804ft 445kts
17-Mar-19 14:31 34.692598 -112.518100 72 19944ft 424kts
17-Mar-19 14:32 34.742498 -112.392434 54 18276ft 410kts
17-Mar-19 14:33 34.808409 -112.278873 55 16478ft 412kts
17-Mar-19 14:34 34.872328 -112.163021 57 14978ft 400kts
17-Mar-19 14:35 34.930919 -112.056200 55 13074ft 352kts
17-Mar-19 14:36 34.976139 -111.969093 59 11870ft 276kts
17-Mar-19 14:37 35.009912 -111.889263 66 11227ft 259kts
17-Mar-19 14:38 35.035696 -111.812095 69 10107ft 232kts
17-Mar-19 14:39 35.068427 -111.747134 45 8692ft 218kts
17-Mar-19 14:40 35.107392 -111.704026 44 7698ft 168kts
17-Mar-19 14:41 35.139105 -111.670514 42 7014ft 88kts
17-Mar-19 14:42 35.142741 -111.668268 243 7013ft 0kts
17-Mar-19 14:43 35.138869 -111.672460 220 7013ft 22kts
17-Mar-19 14:44 35.136384 -111.676469 230 7013ft 4kts
17-Mar-19 14:45 35.136379 -111.676475 225 7013ft 0kts
17-Mar-19 14:46 35.136379 -111.676475 225 7013ft 0kts
17-Mar-19 14:47 35.136379 -111.676475 225 7013ft 0kts
17-Mar-19 14:48 35.136379 -111.676475 225 7013ft 0kts
17-Mar-19 14:49 35.136379 -111.676475 225 7013ft 0kts
17-Mar-19 14:50 35.136379 -111.676475 225 7013ft 0kts
17-Mar-19 14:51 35.136379 -111.676475 225 7013ft 0kts
17-Mar-19 14:52 35.136379 -111.676475 225 7013ft 0kts
17-Mar-19 14:53 35.136379 -111.676475 225 7013ft 0kts
17-Mar-19 14:54 35.136379 -111.676475 225 7013ft 0kts
17-Mar-19 14:55 35.136379 -111.676475 225 7013ft 0kts
17-Mar-19 14:56 35.136379 -111.676475 225 7013ft 0kts

Navigation Log

Ident Type
Flight plan parsing failed, navigation log unavailable